Time;durP1;ratioP1;P1;durP2;ratioP2;P2;SDS_P1;SDS_P2;PMS_P1;PMS_P2;Temp;Humidity;BMP_temperature;BMP_pressure;BME280_temperature;BME280_humidity;BME280_pressure;Samples;Min_cycle;Max_cycle;Signal;HPM_P1;HPM_P2
2022/06/28 00:00:00;;;;;;;7.45;5.10;;;;;;;20.03;60.71;95717.06;4994615;28;20067;-84
2022/06/28 00:02:26;;;;;;;5.65;5.07;;;;;;;20.01;60.91;95720.00;5011795;28;20095;-85
2022/06/28 00:04:51;;;;;;;6.95;4.78;;;;;;;20.00;61.12;95714.78;5029811;28;20033;-85
2022/06/28 00:07:17;;;;;;;8.13;5.32;;;;;;;19.98;61.32;95715.00;5028381;28;20021;-85
2022/06/28 00:09:42;;;;;;;7.38;5.30;;;;;;;19.97;61.30;95715.25;5028291;28;20040;-85
2022/06/28 00:12:08;;;;;;;9.75;5.78;;;;;;;19.92;61.40;95710.50;5011950;28;20029;-85
2022/06/28 00:17:18;;;;;;;6.38;4.72;;;;;;;19.85;61.67;95707.00;5014354;28;20091;-85
2022/06/28 00:19:43;;;;;;;7.65;4.95;;;;;;;19.78;61.52;95715.25;5029348;28;20029;-85
2022/06/28 00:22:09;;;;;;;7.57;4.88;;;;;;;19.71;61.74;95709.91;5028373;28;20029;-85
2022/06/28 00:24:34;;;;;;;5.88;4.82;;;;;;;19.71;62.10;95714.50;5027330;28;20049;-85
2022/06/28 00:26:59;;;;;;;6.47;4.63;;;;;;;19.69;62.12;95720.19;5011885;28;20025;-85
2022/06/28 00:29:25;;;;;;;7.65;4.95;;;;;;;19.68;62.30;95723.13;5028082;28;20026;-83
2022/06/28 00:31:50;;;;;;;5.88;5.03;;;;;;;19.61;62.50;95718.59;5011583;28;20056;-85
2022/06/28 00:34:16;;;;;;;6.53;5.00;;;;;;;19.60;62.90;95721.56;5028959;28;20033;-85
2022/06/28 00:36:42;;;;;;;6.57;5.03;;;;;;;19.58;62.34;95719.06;5027677;28;20029;-85
2022/06/28 00:39:08;;;;;;;5.45;4.93;;;;;;;19.58;62.54;95721.78;5011205;28;20018;-85
2022/06/28 00:41:34;;;;;;;6.53;4.85;;;;;;;19.59;62.08;95720.72;5029014;28;20543;-85
2022/06/28 00:44:00;;;;;;;8.40;4.80;;;;;;;19.57;61.84;95720.09;5012045;28;20022;-85
2022/06/28 00:46:25;;;;;;;7.28;5.00;;;;;;;19.58;61.89;95723.66;5027505;28;20523;-85
2022/06/28 00:48:51;;;;;;;7.93;5.90;;;;;;;19.57;62.11;95719.28;4994797;28;20083;-85
2022/06/28 00:51:17;;;;;;;8.27;5.35;;;;;;;19.57;62.18;95722.00;5011350;28;20060;-85
2022/06/28 00:53:42;;;;;;;5.60;5.03;;;;;;;19.51;62.49;95726.47;5027564;28;20085;-85
2022/06/28 00:56:07;;;;;;;7.22;5.22;;;;;;;19.41;62.75;95726.97;5027278;28;20033;-86
2022/06/28 00:58:33;;;;;;;5.72;4.75;;;;;;;19.39;62.88;95726.41;5029023;28;20025;-84
2022/06/28 01:00:58;;;;;;;7.47;5.50;;;;;;;19.39;62.76;95721.78;5028625;28;20029;-85
2022/06/28 01:03:24;;;;;;;5.25;4.57;;;;;;;19.38;62.66;95725.56;5028550;28;20080;-84
2022/06/28 01:05:50;;;;;;;7.65;5.00;;;;;;;19.36;62.60;95729.56;5010628;28;20040;-84
2022/06/28 01:08:16;;;;;;;5.85;5.15;;;;;;;19.34;62.84;95724.34;5027257;28;20033;-84
2022/06/28 01:10:41;;;;;;;7.28;5.10;;;;;;;19.37;62.36;95723.91;5009719;28;20068;-86
2022/06/28 01:13:07;;;;;;;6.43;5.05;;;;;;;19.38;62.31;95722.84;5027076;28;20060;-85
2022/06/28 01:15:33;;;;;;;7.60;5.10;;;;;;;19.38;62.25;95722.84;5027313;28;20028;-84
2022/06/28 01:17:59;;;;;;;6.50;4.68;;;;;;;19.42;62.23;95716.94;5026710;28;20037;-86
2022/06/28 01:20:25;;;;;;;8.02;4.88;;;;;;;19.40;62.36;95714.44;5010591;28;20511;-84
2022/06/28 01:22:51;;;;;;;7.15;5.00;;;;;;;19.36;62.51;95705.91;5026738;28;20021;-85
2022/06/28 01:25:16;;;;;;;5.75;5.15;;;;;;;19.34;62.81;95708.03;5010237;28;20491;-84
2022/06/28 01:27:42;;;;;;;6.90;5.13;;;;;;;19.28;63.12;95708.94;5010300;28;20136;-86
2022/06/28 01:30:08;;;;;;;10.02;5.20;;;;;;;19.33;62.88;95713.69;5026740;28;20518;-85
2022/06/28 01:32:33;;;;;;;6.38;5.78;;;;;;;19.31;62.91;95719.38;5010495;28;20033;-84
2022/06/28 01:34:59;;;;;;;5.97;5.25;;;;;;;19.27;62.66;95715.41;5026337;28;20099;-85
2022/06/28 01:37:25;;;;;;;6.53;5.75;;;;;;;19.21;62.73;95714.44;5027067;28;20036;-85
2022/06/28 01:39:50;;;;;;;8.35;6.25;;;;;;;19.19;62.82;95721.16;5026563;28;20022;-84
2022/06/28 01:42:16;;;;;;;6.28;5.47;;;;;;;19.12;63.23;95716.63;5026106;28;20025;-85
2022/06/28 01:44:42;;;;;;;6.30;5.30;;;;;;;19.09;62.94;95721.63;5026555;28;20033;-85
2022/06/28 01:47:07;;;;;;;7.82;5.93;;;;;;;19.04;62.65;95719.59;5009783;28;20213;-84
2022/06/28 01:49:33;;;;;;;9.35;5.05;;;;;;;19.05;62.86;95720.44;5010150;28;20021;-84
2022/06/28 01:51:58;;;;;;;7.47;5.40;;;;;;;19.06;63.17;95716.66;5009398;28;20025;-85
2022/06/28 01:54:25;;;;;;;8.50;5.20;;;;;;;19.04;62.66;95719.59;5009761;28;20028;-84
2022/06/28 01:56:51;;;;;;;7.43;5.55;;;;;;;19.03;63.16;95720.66;5027185;28;20025;-86
2022/06/28 01:59:16;;;;;;;6.63;5.15;;;;;;;19.04;63.14;95714.16;5009962;28;20320;-84
2022/06/28 02:01:42;;;;;;;8.15;5.30;;;;;;;19.08;62.81;95719.97;5026218;28;20021;-85
2022/06/28 02:04:20;;;;;;;5.18;4.53;;;;;;;19.06;62.45;95717.47;4992884;28;20033;-85
2022/06/28 02:06:46;;;;;;;6.25;5.30;;;;;;;19.00;62.30;95712.94;5009572;28;20021;-85
2022/06/28 02:09:11;;;;;;;6.22;5.47;;;;;;;18.96;62.60;95711.75;5025606;28;20017;-84
2022/06/28 02:11:37;;;;;;;7.18;5.35;;;;;;;18.97;62.87;95718.84;5025866;28;20088;-85
2022/06/28 02:14:02;;;;;;;7.60;5.13;;;;;;;18.97;62.57;95718.84;5026648;28;20104;-85
2022/06/28 02:16:28;;;;;;;7.65;5.60;;;;;;;18.92;62.43;95710.50;5009525;28;20029;-85
2022/06/28 02:18:53;;;;;;;10.63;5.70;;;;;;;18.95;62.79;95715.50;5025760;28;20033;-85
2022/06/28 02:21:19;;;;;;;10.68;5.85;;;;;;;18.98;62.76;95715.88;5025473;28;20499;-85
2022/06/28 02:23:44;;;;;;;9.32;5.97;;;;;;;18.82;63.61;95711.00;5025632;28;20046;-85
2022/06/28 02:26:11;;;;;;;7.70;5.57;;;;;;;18.82;63.92;95716.44;5008706;28;20091;-85
2022/06/28 02:28:37;;;;;;;10.80;5.30;;;;;;;18.87;63.27;95717.47;5025890;28;20391;-85
2022/06/28 02:31:13;;;;;;;8.32;5.72;;;;;;;18.84;63.65;95722.50;5026992;28;20029;-84
2022/06/28 02:33:39;;;;;;;6.50;5.53;;;;;;;18.82;63.76;95711.84;5027470;28;20091;-84
2022/06/28 02:41:32;;;;;;;8.57;5.82;;;;;;;18.73;64.09;95710.47;5015600;28;20054;-83
2022/06/28 02:43:58;;;;;;;7.72;6.10;;;;;;;18.71;64.19;95715.28;5015342;28;20021;-84
2022/06/28 02:46:23;;;;;;;7.72;6.00;;;;;;;18.72;64.47;95714.22;5027265;28;20033;-85
2022/06/28 02:48:49;;;;;;;8.93;5.95;;;;;;;18.62;64.67;95721.00;5026833;28;20083;-85
2022/06/28 02:51:14;;;;;;;7.00;6.15;;;;;;;18.61;64.69;95713.91;5026876;28;20033;-85
2022/06/28 02:53:40;;;;;;;6.88;5.43;;;;;;;18.61;65.15;95722.06;5008897;28;20033;-85
2022/06/28 02:56:05;;;;;;;7.85;6.10;;;;;;;18.71;65.20;95720.72;5025234;28;20079;-85
2022/06/28 02:58:31;;;;;;;7.40;5.45;;;;;;;18.69;64.88;95712.78;5027404;28;20124;-84
2022/06/28 03:00:56;;;;;;;6.68;5.97;;;;;;;18.48;65.19;95714.00;5025485;28;20178;-86
2022/06/28 03:03:22;;;;;;;6.90;5.85;;;;;;;18.42;65.65;95721.16;5008640;28;20056;-84
2022/06/28 03:05:47;;;;;;;7.75;6.43;;;;;;;18.46;65.56;95713.41;5025034;28;20118;-85
2022/06/28 03:08:13;;;;;;;8.10;5.90;;;;;;;18.46;65.27;95707.97;5026378;28;20029;-86
2022/06/28 03:10:38;;;;;;;8.50;6.00;;;;;;;18.49;65.49;95702.91;5024925;28;20032;-86
2022/06/28 03:13:04;;;;;;;10.75;6.57;;;;;;;18.55;65.44;95712.06;5024965;28;20022;-86
2022/06/28 03:15:29;;;;;;;6.88;5.38;;;;;;;18.58;65.32;95706.22;5025125;28;20108;-84
2022/06/28 03:17:55;;;;;;;8.25;6.03;;;;;;;18.59;65.20;95713.28;5024877;28;20459;-84
2022/06/28 03:20:20;;;;;;;10.73;6.40;;;;;;;18.59;65.19;95713.28;5024951;28;20385;-85
2022/06/28 03:22:46;;;;;;;7.03;6.30;;;;;;;18.51;65.78;95716.28;5026334;28;20029;-85
2022/06/28 03:25:11;;;;;;;9.23;6.88;;;;;;;18.50;66.11;95714.63;5024789;28;20072;-84
2022/06/28 03:27:37;;;;;;;7.65;6.03;;;;;;;18.55;66.08;95709.38;5009392;28;20080;-85
2022/06/28 03:30:03;;;;;;;10.50;5.85;;;;;;;18.49;65.76;95715.69;5011147;28;20033;-84
2022/06/28 03:32:29;;;;;;;7.35;6.22;;;;;;;18.49;65.27;95713.78;5008249;28;20049;-87
2022/06/28 03:34:54;;;;;;;9.25;6.40;;;;;;;18.57;65.12;95715.38;4995183;28;20026;-85
2022/06/28 03:37:20;;;;;;;9.05;6.35;;;;;;;18.59;64.71;95718.72;5028938;28;20033;-85
2022/06/28 03:39:45;;;;;;;12.63;6.90;;;;;;;18.62;64.44;95723.72;5030271;28;20025;-84
2022/06/28 03:42:10;;;;;;;8.93;6.70;;;;;;;18.69;64.34;95723.66;5030421;28;20026;-84
2022/06/28 03:44:36;;;;;;;10.25;6.63;;;;;;;18.75;64.07;95721.94;5015892;28;20064;-85
2022/06/28 03:47:02;;;;;;;8.20;6.30;;;;;;;18.76;63.78;95729.88;5030321;28;20048;-84
2022/06/28 03:49:27;;;;;;;10.32;6.30;;;;;;;18.79;63.92;95734.03;5028276;28;20030;-84
2022/06/28 03:51:53;;;;;;;9.80;6.68;;;;;;;18.81;64.17;95737.38;5012100;28;20393;-85
2022/06/28 03:54:18;;;;;;;10.77;7.15;;;;;;;18.80;64.04;95740.31;5028629;28;20535;-84
2022/06/28 03:56:44;;;;;;;11.02;7.07;;;;;;;18.76;64.15;95739.91;5029721;28;20033;-84
2022/06/28 03:59:09;;;;;;;12.63;7.68;;;;;;;18.82;64.01;95739.03;5012210;28;20025;-85
2022/06/28 04:01:35;;;;;;;9.45;7.13;;;;;;;18.85;64.25;95741.28;5028257;28;20401;-85
2022/06/28 04:04:00;;;;;;;9.25;7.70;;;;;;;18.90;64.39;95737.91;5028347;28;20029;-84
2022/06/28 04:06:25;;;;;;;12.60;7.80;;;;;;;18.92;64.70;95749.41;5029258;28;20038;-85
2022/06/28 04:08:51;;;;;;;10.75;8.07;;;;;;;18.94;64.31;95746.44;5029490;28;20032;-85
2022/06/28 04:11:17;;;;;;;9.60;7.32;;;;;;;19.02;64.73;95748.91;5028083;28;20037;-85
2022/06/28 04:13:44;;;;;;;11.45;7.85;;;;;;;19.06;64.42;95755.53;5029654;28;20029;-84
2022/06/28 04:16:09;;;;;;;10.95;8.45;;;;;;;19.11;64.19;95754.91;5028240;28;20025;-86
2022/06/28 04:18:36;;;;;;;9.25;7.63;;;;;;;19.15;64.37;95758.84;5011319;28;20037;-86
2022/06/28 04:21:02;;;;;;;12.75;9.18;;;;;;;19.24;64.94;95756.66;5029502;28;20052;-85
2022/06/28 04:23:27;;;;;;;12.88;8.80;;;;;;;19.34;64.78;95765.16;5011502;28;20435;-84
2022/06/28 04:25:53;;;;;;;9.55;8.48;;;;;;;19.38;64.83;95773.66;5011410;28;20033;-86
2022/06/28 04:28:18;;;;;;;13.05;9.07;;;;;;;19.39;64.58;95773.44;5011531;28;20346;-86
2022/06/28 04:30:44;;;;;;;10.10;8.52;;;;;;;19.49;64.66;95758.50;5011558;28;20057;-85
2022/06/28 04:33:09;;;;;;;11.95;8.73;;;;;;;19.69;64.26;95768.31;5011713;28;20025;-85
2022/06/28 04:35:34;;;;;;;13.18;9.00;;;;;;;19.75;63.92;95762.81;5027891;28;20447;-87
2022/06/28 04:38:01;;;;;;;10.95;8.52;;;;;;;19.77;63.75;95763.41;5028234;28;20396;-85
2022/06/28 04:40:26;;;;;;;10.70;9.38;;;;;;;19.75;64.00;95761.97;5029422;28;20021;-84
2022/06/28 04:42:52;;;;;;;12.38;9.13;;;;;;;19.84;63.46;95766.06;5027655;28;20063;-85
2022/06/28 04:45:17;;;;;;;14.00;9.27;;;;;;;19.95;63.71;95766.34;5026161;28;20048;-85
2022/06/28 04:47:43;;;;;;;12.02;8.85;;;;;;;20.12;62.61;95761.97;5030058;28;20025;-85
2022/06/28 04:50:08;;;;;;;11.00;8.38;;;;;;;20.07;62.18;95761.81;5030061;28;20408;-84
2022/06/28 04:52:34;;;;;;;11.20;8.25;;;;;;;20.12;62.52;95770.13;5013041;28;20047;-85
2022/06/28 04:55:00;;;;;;;12.75;8.88;;;;;;;20.23;62.63;95773.97;5012007;28;20029;-84
2022/06/28 04:57:25;;;;;;;10.65;8.18;;;;;;;20.33;61.68;95772.59;5010847;28;20467;-85
2022/06/28 04:59:51;;;;;;;9.75;8.25;;;;;;;20.48;61.65;95759.38;5027479;28;20463;-85
2022/06/28 05:02:17;;;;;;;11.45;8.07;;;;;;;20.63;61.20;95760.84;5027524;28;20022;-85
2022/06/28 05:04:42;;;;;;;13.00;8.93;;;;;;;20.77;61.87;95763.34;5029336;28;20025;-84
2022/06/28 05:07:08;;;;;;;9.45;7.60;;;;;;;20.84;61.26;95759.47;5010878;28;20025;-84
2022/06/28 05:09:33;;;;;;;11.18;8.15;;;;;;;20.94;60.67;95755.38;5029040;28;20025;-85
2022/06/28 05:11:59;;;;;;;10.27;8.32;;;;;;;20.95;60.07;95757.00;5026836;28;20030;-85
2022/06/28 05:14:24;;;;;;;14.63;8.65;;;;;;;21.06;60.86;95756.19;5028393;28;20030;-85
2022/06/28 05:16:49;;;;;;;8.85;7.28;;;;;;;21.10;60.08;95759.28;5028928;28;20026;-85
2022/06/28 05:19:15;;;;;;;13.43;7.93;;;;;;;21.13;60.57;95758.81;5010798;28;20035;-85
2022/06/28 05:21:40;;;;;;;11.02;7.43;;;;;;;21.24;59.69;95755.25;5011364;28;20022;-84
2022/06/28 05:24:06;;;;;;;9.68;7.10;;;;;;;21.34;59.47;95749.22;5028316;28;20049;-85
2022/06/28 05:26:31;;;;;;;10.52;7.93;;;;;;;21.36;59.60;95755.25;5011068;28;20021;-85
2022/06/28 05:28:57;;;;;;;11.98;8.57;;;;;;;21.44;58.56;95755.97;5026925;28;20112;-85
2022/06/28 05:31:22;;;;;;;11.45;8.05;;;;;;;21.59;58.31;95756.28;5011067;28;20032;-86
2022/06/28 05:33:47;;;;;;;10.02;7.00;;;;;;;21.73;59.00;95762.31;4994277;28;20507;-84
2022/06/28 05:36:13;;;;;;;11.43;7.97;;;;;;;21.83;58.45;95767.19;5026972;28;20093;-85
2022/06/28 05:38:38;;;;;;;9.75;7.43;;;;;;;21.96;58.47;95763.38;5028231;28;20026;-85
2022/06/28 05:41:04;;;;;;;15.07;7.95;;;;;;;21.92;58.17;95751.28;5028281;28;20099;-85
2022/06/28 05:43:29;;;;;;;11.32;7.90;;;;;;;21.85;58.22;95758.75;5028192;28;20037;-85
2022/06/28 05:45:55;;;;;;;10.77;7.40;;;;;;;21.84;58.77;95752.47;5026954;28;20108;-86
2022/06/28 05:48:20;;;;;;;10.45;7.13;;;;;;;22.00;58.04;95749.22;5026874;28;20036;-85
2022/06/28 05:50:47;;;;;;;12.07;7.50;;;;;;;22.01;57.80;95756.34;5010643;28;20021;-85
2022/06/28 05:53:13;;;;;;;16.60;7.78;;;;;;;22.20;56.83;95759.72;5032300;28;20021;-85
2022/06/28 05:55:38;;;;;;;11.98;8.15;;;;;;;22.29;56.99;95763.75;5026884;28;20052;-86
2022/06/28 05:58:04;;;;;;;15.90;7.35;;;;;;;22.35;56.92;95762.75;5027093;28;20045;-86
2022/06/28 06:00:29;;;;;;;12.15;7.88;;;;;;;22.51;57.45;95771.25;5026742;28;20033;-84
2022/06/28 06:02:55;;;;;;;11.85;7.75;;;;;;;22.42;56.93;95772.72;5026234;28;20595;-85
2022/06/28 06:05:20;;;;;;;12.80;7.90;;;;;;;22.44;58.02;95770.56;5027189;28;20037;-84
2022/06/28 06:07:46;;;;;;;10.32;7.60;;;;;;;22.31;56.49;95758.84;5027198;28;20404;-85
2022/06/28 06:10:11;;;;;;;10.52;7.50;;;;;;;22.40;55.53;95772.13;5027416;28;20021;-85
2022/06/28 06:12:36;;;;;;;10.23;7.05;;;;;;;22.58;55.19;95766.47;5025702;28;20060;-84
2022/06/28 06:15:02;;;;;;;7.68;6.88;;;;;;;22.75;55.60;95759.41;5026928;28;20370;-86
2022/06/28 06:17:28;;;;;;;12.25;6.93;;;;;;;22.93;56.59;95763.78;5027362;28;20389;-86
2022/06/28 06:19:53;;;;;;;12.00;7.30;;;;;;;23.13;55.54;95759.72;5027021;28;20030;-86
2022/06/28 06:22:18;;;;;;;12.50;7.18;;;;;;;23.16;55.64;95759.22;5027379;28;20095;-85
2022/06/28 06:24:44;;;;;;;15.10;8.00;;;;;;;23.18;56.15;95743.41;5027353;28;20042;-85
2022/06/28 06:27:09;;;;;;;10.30;7.60;;;;;;;23.29;57.36;95747.94;5027687;28;20034;-86
2022/06/28 06:29:35;;;;;;;8.88;7.07;;;;;;;23.27;54.82;95746.53;5027026;28;20407;-85
2022/06/28 06:32:01;;;;;;;9.15;7.35;;;;;;;23.26;54.12;95736.66;5026141;28;20084;-84
2022/06/28 06:34:26;;;;;;;11.57;7.95;;;;;;;23.41;54.85;95744.28;5025870;28;20025;-86
2022/06/28 06:36:52;;;;;;;11.75;7.38;;;;;;;23.53;54.77;95747.78;5027228;28;20397;-86
2022/06/28 06:39:17;;;;;;;12.02;6.78;;;;;;;23.75;55.90;95743.38;5026000;28;20029;-87
2022/06/28 06:41:43;;;;;;;10.23;6.63;;;;;;;23.90;54.34;95740.00;5025939;28;20017;-86
2022/06/28 06:44:09;;;;;;;9.30;6.53;;;;;;;23.99;52.38;95732.19;5009687;28;20084;-86
2022/06/28 06:46:36;;;;;;;9.80;6.15;;;;;;;23.86;52.19;95738.88;5025240;28;20416;-87
2022/06/28 06:49:01;;;;;;;7.68;6.82;;;;;;;23.79;53.18;95728.09;5025994;28;20333;-85
2022/06/28 06:51:27;;;;;;;8.63;6.45;;;;;;;23.53;53.31;95725.88;5009211;28;20028;-86
2022/06/28 06:53:52;;;;;;;11.07;6.78;;;;;;;23.65;52.97;95720.25;5027022;28;20029;-85
2022/06/28 06:56:18;;;;;;;9.10;5.97;;;;;;;23.85;53.04;95721.59;5027186;28;20780;-85
2022/06/28 06:58:43;;;;;;;12.65;6.65;;;;;;;24.00;52.48;95718.22;5025506;28;20533;-86
2022/06/28 07:01:09;;;;;;;12.70;6.40;;;;;;;24.05;51.63;95715.53;5009258;28;21046;-86
2022/06/28 07:03:35;;;;;;;9.43;6.25;;;;;;;23.99;52.14;95716.56;5025026;28;20443;-86
2022/06/28 07:06:00;;;;;;;9.57;6.65;;;;;;;24.06;53.19;95711.72;5009629;28;20032;-86
2022/06/28 07:08:26;;;;;;;8.35;5.72;;;;;;;23.99;52.20;95711.09;5007983;28;20029;-86
2022/06/28 07:10:51;;;;;;;8.15;5.97;;;;;;;23.76;51.87;95718.50;5025693;28;20503;-86
2022/06/28 07:13:17;;;;;;;6.70;5.95;;;;;;;23.82;52.52;95712.00;5025390;28;20036;-86
2022/06/28 07:15:42;;;;;;;7.07;6.03;;;;;;;23.89;52.42;95710.97;5024956;28;20026;-85
2022/06/28 07:18:08;;;;;;;7.43;6.43;;;;;;;23.94;53.48;95714.59;5025550;28;20029;-86
2022/06/28 07:20:33;;;;;;;11.73;7.10;;;;;;;24.02;52.90;95705.09;5024825;28;20476;-86
2022/06/28 07:22:59;;;;;;;7.60;5.95;;;;;;;24.28;52.67;95713.63;5025541;28;20083;-86
2022/06/28 07:25:26;;;;;;;6.38;5.53;;;;;;;24.57;51.58;95699.66;5024591;28;20054;-86
2022/06/28 07:27:51;;;;;;;8.35;5.85;;;;;;;24.86;50.59;95712.22;5009173;28;20018;-85
2022/06/28 07:30:17;;;;;;;7.03;5.68;;;;;;;25.05;50.78;95703.63;5024981;28;20048;-86
2022/06/28 07:32:42;;;;;;;8.32;5.78;;;;;;;25.17;50.20;95708.91;5024850;28;20166;-86
2022/06/28 07:35:08;;;;;;;8.98;5.65;;;;;;;25.04;49.30;95702.81;5008350;28;20036;-86
2022/06/28 07:37:33;;;;;;;7.07;6.38;;;;;;;25.12;48.56;95701.47;5024721;28;20018;-86
2022/06/28 07:39:59;;;;;;;8.95;6.15;;;;;;;25.23;48.32;95716.09;5008914;28;20026;-86
2022/06/28 07:42:24;;;;;;;7.78;5.85;;;;;;;25.39;48.55;95710.72;5024536;28;20132;-86
2022/06/28 07:44:50;;;;;;;6.90;5.70;;;;;;;25.51;47.74;95710.50;5025900;28;20033;-86
2022/06/28 07:47:15;;;;;;;7.95;5.65;;;;;;;25.46;47.85;95705.81;5008359;28;20033;-85
2022/06/28 07:52:34;;;;;;;9.32;5.70;;;;;;;25.49;46.60;95707.22;5025007;28;20342;-89
2022/06/28 07:55:00;;;;;;;8.07;6.03;;;;;;;25.75;47.43;95710.09;5009744;28;20056;-87
2022/06/28 07:57:26;;;;;;;7.13;5.43;;;;;;;25.91;47.37;95703.56;4992183;28;20033;-86
2022/06/28 07:59:51;;;;;;;7.20;5.60;;;;;;;26.09;46.17;95701.44;5024465;28;20037;-86
2022/06/28 08:02:17;;;;;;;8.82;6.13;;;;;;;26.35;46.63;95695.19;5025275;28;20736;-85
2022/06/28 08:04:42;;;;;;;15.60;6.55;;;;;;;26.50;44.25;95697.97;5024242;28;20024;-87
2022/06/28 08:07:08;;;;;;;8.40;6.07;;;;;;;26.48;45.48;95699.34;5024441;28;20033;-86
2022/06/28 08:09:33;;;;;;;7.13;5.38;;;;;;;26.60;43.50;95701.84;5024403;28;20025;-86
2022/06/28 08:11:58;;;;;;;8.75;5.03;;;;;;;26.69;43.17;95689.19;5007846;28;20029;-88
2022/06/28 08:14:24;;;;;;;7.38;4.97;;;;;;;26.66;44.01;95689.75;5025965;28;20322;-86
2022/06/28 08:16:49;;;;;;;7.03;5.00;;;;;;;26.58;44.57;95682.03;5025474;28;20026;-87
2022/06/28 08:19:15;;;;;;;6.18;5.13;;;;;;;26.46;44.34;95687.78;5026241;28;20103;-85
2022/06/28 08:21:41;;;;;;;7.22;4.60;;;;;;;26.56;45.60;95685.06;5029243;28;20025;-86
2022/06/28 08:24:07;;;;;;;6.25;4.70;;;;;;;26.65;44.79;95688.06;5028021;28;20050;-86
2022/06/28 08:26:33;;;;;;;6.95;5.13;;;;;;;26.57;44.49;95686.69;5029181;28;20037;-87
2022/06/28 08:28:59;;;;;;;6.63;5.13;;;;;;;26.49;44.91;95685.31;5011809;28;20029;-86
2022/06/28 08:31:24;;;;;;;5.63;4.93;;;;;;;26.57;45.36;95688.63;5027977;28;20045;-86
2022/06/28 08:33:50;;;;;;;6.10;5.07;;;;;;;26.66;44.25;95692.50;5011404;28;20099;-85
2022/06/28 08:36:15;;;;;;;7.28;5.10;;;;;;;26.67;43.95;95688.63;5011891;28;20033;-88
2022/06/28 08:38:41;;;;;;;8.10;4.95;;;;;;;26.59;44.07;95689.16;5011408;28;20022;-86
2022/06/28 08:41:06;;;;;;;8.48;4.95;;;;;;;26.77;45.27;95688.66;5011376;28;20029;-88
2022/06/28 08:43:32;;;;;;;10.60;5.47;;;;;;;26.88;45.06;95696.88;5029343;28;20021;-84
2022/06/28 08:45:58;;;;;;;11.93;5.35;;;;;;;26.85;45.35;95694.69;5027557;28;20153;-87
2022/06/28 08:48:27;;;;;;;13.07;5.90;;;;;;;26.74;44.30;95691.94;4994600;28;20427;-85
2022/06/28 08:50:53;;;;;;;7.38;5.47;;;;;;;26.93;46.22;95687.78;5029018;28;20025;-87
2022/06/28 08:53:22;;;;;;;8.80;5.15;;;;;;;26.97;44.27;95689.72;5027861;28;20061;-88
2022/06/28 08:55:48;;;;;;;7.45;4.78;;;;;;;26.96;44.01;95687.25;5027806;28;20053;-86
2022/06/28 08:58:14;;;;;;;7.20;4.82;;;;;;;27.07;45.61;95688.13;5012572;28;20053;-84
2022/06/28 09:00:39;;;;;;;6.90;4.43;;;;;;;27.07;44.65;95688.91;5020942;28;20040;-87
2022/06/28 09:03:05;;;;;;;7.30;4.82;;;;;;;26.96;43.16;95693.59;5014183;28;20032;-87
2022/06/28 09:05:30;;;;;;;9.30;4.65;;;;;;;26.96;45.02;95696.34;5027294;28;20041;-85
2022/06/28 09:07:56;;;;;;;4.93;4.00;;;;;;;26.85;42.82;95691.94;5028648;28;20054;-86
2022/06/28 09:10:22;;;;;;;8.32;4.28;;;;;;;26.91;43.65;95685.31;5027286;28;20215;-87
2022/06/28 09:12:57;;;;;;;6.22;4.50;;;;;;;27.02;43.39;95683.41;5010838;28;20429;-87
2022/06/28 09:15:22;;;;;;;5.95;4.05;;;;;;;27.05;42.66;95679.31;5027566;28;20053;-86
2022/06/28 09:17:49;;;;;;;7.85;4.43;;;;;;;26.90;44.04;95684.53;5028254;28;20123;-87
2022/06/28 09:20:15;;;;;;;6.05;4.00;;;;;;;27.11;43.33;95679.03;5027128;28;20439;-86
2022/06/28 09:22:42;;;;;;;5.38;4.10;;;;;;;27.15;43.35;95684.78;5010564;28;20036;-87
2022/06/28 09:25:14;;;;;;;9.65;4.93;;;;;;;27.24;42.49;95677.63;5010432;28;20048;-86
2022/06/28 09:27:41;;;;;;;5.68;4.10;;;;;;;27.38;47.01;95679.78;5028231;28;20037;-87
2022/06/28 09:30:11;;;;;;;5.65;3.95;;;;;;;27.37;42.80;95675.38;5026710;28;20017;-86
2022/06/28 09:32:37;;;;;;;6.07;3.90;;;;;;;27.07;41.82;95683.41;5026673;28;20048;-86
2022/06/28 09:35:07;;;;;;;7.03;3.97;;;;;;;26.97;42.16;95675.97;5009905;28;20364;-86
2022/06/28 09:37:45;;;;;;;7.72;4.82;;;;;;;27.11;42.86;95673.50;5026916;28;20030;-86
2022/06/28 09:40:20;;;;;;;9.45;4.50;;;;;;;27.11;43.57;95673.50;5026357;28;20029;-89
2022/06/28 09:42:47;;;;;;;5.35;4.28;;;;;;;27.32;42.40;95673.47;5026872;28;20025;-88
2022/06/28 09:45:14;;;;;;;8.00;4.60;;;;;;;27.35;45.12;95666.56;5009887;28;20444;-85
2022/06/28 09:47:41;;;;;;;7.97;4.55;;;;;;;27.46;44.49;95673.69;5026841;28;20072;-86
2022/06/28 09:50:07;;;;;;;7.05;4.18;;;;;;;27.47;42.59;95664.31;5026786;28;20025;-87
2022/06/28 09:52:33;;;;;;;7.93;4.60;;;;;;;27.50;43.89;95661.00;4993881;28;20141;-85
2022/06/28 09:54:59;;;;;;;6.93;4.68;;;;;;;27.50;43.76;95652.75;5010365;28;20122;-85
2022/06/28 09:57:24;;;;;;;5.25;4.68;;;;;;;27.44;42.63;95653.88;4993468;28;20060;-86
2022/06/28 09:59:49;;;;;;;11.13;4.82;;;;;;;27.47;43.17;95658.00;5026666;28;20437;-86
2022/06/28 10:02:16;;;;;;;5.60;4.00;;;;;;;27.49;42.92;95658.53;5026007;28;20040;-86
2022/06/28 10:04:42;;;;;;;6.45;4.68;;;;;;;27.50;42.69;95652.75;5027341;28;20095;-86
2022/06/28 10:07:11;;;;;;;10.65;5.18;;;;;;;27.64;43.82;95663.19;5026228;28;20033;-86
2022/06/28 10:09:36;;;;;;;6.35;4.60;;;;;;;27.69;43.07;95654.94;4993209;28;20448;-88
2022/06/28 10:15:04;;;;;;;7.38;4.68;;;;;;;27.62;42.88;95646.09;5026536;28;20372;-86
2022/06/28 10:17:34;;;;;;;5.32;4.50;;;;;;;27.62;43.51;95651.59;5011902;28;20039;-86
2022/06/28 10:20:00;;;;;;;6.72;3.95;;;;;;;27.64;42.18;95646.66;5027462;28;20027;-85
2022/06/28 10:22:26;;;;;;;6.78;4.32;;;;;;;27.79;41.47;95631.19;5009441;28;20044;-87
2022/06/28 10:24:58;;;;;;;7.72;4.30;;;;;;;27.80;42.05;95627.31;5009705;28;20507;-86
2022/06/28 10:27:23;;;;;;;;;;;;;;;27.92;43.50;95638.00;5026112;28;20390;-84
2022/06/28 10:29:58;;;;;;;4.35;3.95;;;;;;;27.73;41.86;95631.22;5009966;28;19923;-85
2022/06/28 10:32:39;;;;;;;5.30;4.50;;;;;;;27.81;42.42;95634.50;5027146;28;20125;-86
2022/06/28 10:35:04;;;;;;;6.13;4.75;;;;;;;27.72;43.10;95629.56;5025756;28;20096;-86
2022/06/28 10:37:30;;;;;;;8.73;4.10;;;;;;;27.63;42.58;95628.47;4992891;28;20488;-85
2022/06/28 10:40:23;;;;;;;5.47;3.90;;;;;;;27.64;42.17;95630.94;5025657;28;20035;-86
2022/06/28 10:42:52;;;;;;;4.82;4.00;;;;;;;27.34;41.45;95629.94;5027203;28;20488;-86
2022/06/28 10:45:20;;;;;;;7.10;4.03;;;;;;;27.37;43.11;95626.66;5008926;28;20120;-86
2022/06/28 10:48:07;;;;;;;5.07;4.10;;;;;;;27.41;42.71;95621.38;5009594;28;20041;-86
2022/06/28 10:50:56;;;;;;;5.28;4.28;;;;;;;27.24;42.73;95621.72;5025462;28;20045;-85
2022/06/28 10:53:22;;;;;;;7.50;4.60;;;;;;;27.13;42.97;95620.94;5025740;28;20484;-85
2022/06/28 10:56:15;;;;;;;4.68;3.90;;;;;;;27.10;43.75;95622.31;5026209;28;20026;-85
2022/06/28 10:58:56;;;;;;;6.78;4.10;;;;;;;27.05;43.50;95616.84;5024934;28;20040;-87
2022/06/28 11:01:40;;;;;;;6.00;4.10;;;;;;;27.09;43.37;95615.16;5025308;28;20400;-86
2022/06/28 11:04:18;;;;;;;8.60;4.25;;;;;;;27.26;43.66;95617.59;5027010;28;20105;-87
2022/06/28 11:06:44;;;;;;;5.43;4.18;;;;;;;27.45;43.62;95599.63;5024901;28;20025;-87
2022/06/28 11:09:48;;;;;;;11.10;4.55;;;;;;;27.58;43.13;95598.19;5025707;28;20026;-86
2022/06/28 11:12:15;;;;;;;5.28;3.95;;;;;;;27.67;42.31;95590.16;5026699;28;20025;-86
2022/06/28 11:14:46;;;;;;;5.53;3.47;;;;;;;27.72;41.88;95599.25;5025854;28;20405;-84
2022/06/28 11:17:22;;;;;;;4.87;3.97;;;;;;;27.72;40.20;95593.75;5026506;28;20025;-87
2022/06/28 11:19:56;;;;;;;5.07;3.63;;;;;;;27.81;40.68;95584.91;5010528;28;20712;-85
2022/06/28 11:22:22;;;;;;;4.43;3.72;;;;;;;27.92;42.17;95593.91;5010115;28;20018;-84
2022/06/28 11:24:47;;;;;;;5.38;3.50;;;;;;;27.94;41.10;95599.97;5025960;28;20524;-86
2022/06/28 11:27:22;;;;;;;4.43;3.85;;;;;;;27.92;41.43;95591.16;4992192;28;20057;-87
2022/06/28 11:29:53;;;;;;;6.10;4.43;;;;;;;27.86;41.30;95598.63;5025146;28;20488;-87
2022/06/28 11:32:23;;;;;;;5.75;3.83;;;;;;;27.77;41.59;95595.66;5026356;28;20022;-85
2022/06/28 11:34:57;;;;;;;6.25;3.80;;;;;;;27.83;42.13;95601.94;5025269;28;20435;-87
2022/06/28 11:37:22;;;;;;;5.15;3.22;;;;;;;27.91;39.56;95595.84;5009010;28;20023;-87
2022/06/28 11:39:51;;;;;;;4.82;3.50;;;;;;;27.89;39.23;95601.63;5008587;28;20033;-85
2022/06/28 11:42:16;;;;;;;4.97;3.35;;;;;;;27.87;39.62;95603.03;5026263;28;20025;-87